sensor_id;sensor_type;location;lat;lon;timestamp;pressure;altitude;pressure_sealevel;temperature;humidity
34370;BME280;20635;55.812;37.560;2023-06-05T00:02:00;99833.25;;;24.15;45.29
34370;BME280;20635;55.812;37.560;2023-06-05T00:04:25;99824.03;;;24.14;45.52
34370;BME280;20635;55.812;37.560;2023-06-05T00:06:53;99823.22;;;24.14;45.27
34370;BME280;20635;55.812;37.560;2023-06-05T00:09:19;99828.81;;;24.14;45.25
34370;BME280;20635;55.812;37.560;2023-06-05T00:11:44;99823.22;;;24.14;45.35
34370;BME280;20635;55.812;37.560;2023-06-05T00:14:10;99820.41;;;24.14;45.47
34370;BME280;20635;55.812;37.560;2023-06-05T00:16:36;99822.41;;;24.13;45.22
34370;BME280;20635;55.812;37.560;2023-06-05T00:19:02;99815.97;;;24.13;45.44
34370;BME280;20635;55.812;37.560;2023-06-05T00:21:28;99824.38;;;24.13;45.34
34370;BME280;20635;55.812;37.560;2023-06-05T00:23:54;99824.38;;;24.13;45.48
34370;BME280;20635;55.812;37.560;2023-06-05T00:26:20;99820.75;;;24.12;45.32
34370;BME280;20635;55.812;37.560;2023-06-05T00:28:47;99824.38;;;24.13;45.32
34370;BME280;20635;55.812;37.560;2023-06-05T00:31:12;99818.78;;;24.13;45.40
34370;BME280;20635;55.812;37.560;2023-06-05T00:33:39;99817.09;;;24.12;45.27
34370;BME280;20635;55.812;37.560;2023-06-05T00:36:05;99817.09;;;24.12;45.30
34370;BME280;20635;55.812;37.560;2023-06-05T00:38:31;99822.22;;;24.10;45.43
34370;BME280;20635;55.812;37.560;2023-06-05T00:40:57;99821.38;;;24.09;45.23
34370;BME280;20635;55.812;37.560;2023-06-05T00:43:23;99826.16;;;24.09;45.38
34370;BME280;20635;55.812;37.560;2023-06-05T00:45:49;99821.72;;;24.08;45.47
34370;BME280;20635;55.812;37.560;2023-06-05T00:48:18;99828.97;;;24.09;45.36
34370;BME280;20635;55.812;37.560;2023-06-05T00:50:44;99822.53;;;24.08;45.39
34370;BME280;20635;55.812;37.560;2023-06-05T00:53:10;99825.34;;;24.08;45.42
34370;BME280;20635;55.812;37.560;2023-06-05T00:55:37;99825.34;;;24.08;45.53
34370;BME280;20635;55.812;37.560;2023-06-05T00:58:02;99819.75;;;24.08;45.42
34370;BME280;20635;55.812;37.560;2023-06-05T01:00:29;99828.13;;;24.08;45.32
34370;BME280;20635;55.812;37.560;2023-06-05T01:02:55;99833.75;;;24.08;45.27
34370;BME280;20635;55.812;37.560;2023-06-05T01:05:24;99823.66;;;24.07;45.69
34370;BME280;20635;55.812;37.560;2023-06-05T01:07:50;99827.31;;;24.08;45.42
34370;BME280;20635;55.812;37.560;2023-06-05T01:10:16;99827.31;;;24.08;45.32
34370;BME280;20635;55.812;37.560;2023-06-05T01:15:08;99819.75;;;24.08;45.32
34370;BME280;20635;55.812;37.560;2023-06-05T01:17:34;99837.66;;;24.07;45.29
34370;BME280;20635;55.812;37.560;2023-06-05T01:20:00;99814.13;;;24.08;45.61
34370;BME280;20635;55.812;37.560;2023-06-05T01:22:34;99817.75;;;24.09;45.45
34370;BME280;20635;55.812;37.560;2023-06-05T01:25:01;99813.31;;;24.08;45.60
34370;BME280;20635;55.812;37.560;2023-06-05T01:27:32;99817.75;;;24.09;45.49
34370;BME280;20635;55.812;37.560;2023-06-05T01:32:52;99819.75;;;24.08;45.56
34370;BME280;20635;55.812;37.560;2023-06-05T01:35:21;99810.53;;;24.08;45.32
34370;BME280;20635;55.812;37.560;2023-06-05T01:37:53;99814.97;;;24.09;45.37
34370;BME280;20635;55.812;37.560;2023-06-05T01:40:23;99819.75;;;24.08;45.32
34370;BME280;20635;55.812;37.560;2023-06-05T01:42:50;99818.91;;;24.08;45.34
34370;BME280;20635;55.812;37.560;2023-06-05T01:45:16;99814.97;;;24.09;45.42
34370;BME280;20635;55.812;37.560;2023-06-05T01:47:43;99818.91;;;24.08;45.31
34370;BME280;20635;55.812;37.560;2023-06-05T01:50:10;99818.91;;;24.08;45.43
34370;BME280;20635;55.812;37.560;2023-06-05T01:52:39;99836.53;;;24.08;45.54
34370;BME280;20635;55.812;37.560;2023-06-05T01:55:08;99842.13;;;24.08;45.33
34370;BME280;20635;55.812;37.560;2023-06-05T01:57:40;99833.75;;;24.08;45.16
34370;BME280;20635;55.812;37.560;2023-06-05T02:00:07;99830.13;;;24.08;45.30
34370;BME280;20635;55.812;37.560;2023-06-05T02:02:42;99835.72;;;24.08;45.14
34370;BME280;20635;55.812;37.560;2023-06-05T02:05:08;99830.94;;;24.08;45.24
34370;BME280;20635;55.812;37.560;2023-06-05T02:07:36;99838.50;;;24.08;45.19
34370;BME280;20635;55.812;37.560;2023-06-05T02:10:07;99834.84;;;24.07;45.30
34370;BME280;20635;55.812;37.560;2023-06-05T02:12:34;99841.31;;;24.08;45.15
34370;BME280;20635;55.812;37.560;2023-06-05T02:15:02;99845.22;;;24.07;45.34
34370;BME280;20635;55.812;37.560;2023-06-05T02:17:28;99840.47;;;24.07;45.11
34370;BME280;20635;55.812;37.560;2023-06-05T02:19:54;99835.72;;;24.08;45.35
34370;BME280;20635;55.812;37.560;2023-06-05T02:22:20;99834.84;;;24.07;45.14
34370;BME280;20635;55.812;37.560;2023-06-05T02:24:49;99839.63;;;24.07;45.09
34370;BME280;20635;55.812;37.560;2023-06-05T02:27:19;99845.22;;;24.07;45.23
34370;BME280;20635;55.812;37.560;2023-06-05T02:29:46;99836.00;;;24.06;45.17
34370;BME280;20635;55.812;37.560;2023-06-05T02:32:13;99845.22;;;24.07;45.46
34370;BME280;20635;55.812;37.560;2023-06-05T02:34:38;99839.63;;;24.07;45.27
34370;BME280;20635;55.812;37.560;2023-06-05T02:37:05;99845.56;;;24.05;45.18
34370;BME280;20635;55.812;37.560;2023-06-05T02:39:31;99850.84;;;24.07;45.17
34370;BME280;20635;55.812;37.560;2023-06-05T02:41:59;99850.00;;;24.06;45.11
34370;BME280;20635;55.812;37.560;2023-06-05T02:44:24;99850.84;;;24.07;45.27
34370;BME280;20635;55.812;37.560;2023-06-05T02:46:51;99855.59;;;24.06;45.37
34370;BME280;20635;55.812;37.560;2023-06-05T02:49:17;99852.00;;;24.05;45.44
34370;BME280;20635;55.812;37.560;2023-06-05T02:51:43;99853.63;;;24.07;45.22
34370;BME280;20635;55.812;37.560;2023-06-05T02:54:10;99864.34;;;24.04;45.14
34370;BME280;20635;55.812;37.560;2023-06-05T02:56:36;99861.53;;;24.04;45.52
34370;BME280;20635;55.812;37.560;2023-06-05T02:59:01;99860.72;;;24.04;45.18
34370;BME280;20635;55.812;37.560;2023-06-05T03:01:33;99857.09;;;24.03;45.21
34370;BME280;20635;55.812;37.560;2023-06-05T03:04:03;99851.50;;;24.03;45.42
34370;BME280;20635;55.812;37.560;2023-06-05T03:06:31;99862.69;;;24.03;45.35
34370;BME280;20635;55.812;37.560;2023-06-05T03:09:01;99861.53;;;24.04;45.33
34370;BME280;20635;55.812;37.560;2023-06-05T03:11:26;99862.69;;;24.03;45.46
34370;BME280;20635;55.812;37.560;2023-06-05T03:13:53;99857.91;;;24.04;45.23
34370;BME280;20635;55.812;37.560;2023-06-05T03:16:19;99857.91;;;24.04;45.30
34370;BME280;20635;55.812;37.560;2023-06-05T03:18:49;99859.88;;;24.03;45.36
34370;BME280;20635;55.812;37.560;2023-06-05T03:21:15;99857.09;;;24.03;45.33
34370;BME280;20635;55.812;37.560;2023-06-05T03:23:41;99857.09;;;24.03;45.18
34370;BME280;20635;55.812;37.560;2023-06-05T03:26:06;99854.28;;;24.03;45.39
34370;BME280;20635;55.812;37.560;2023-06-05T03:28:32;99861.88;;;24.03;45.53
34370;BME280;20635;55.812;37.560;2023-06-05T03:31:01;99856.28;;;24.03;45.54
34370;BME280;20635;55.812;37.560;2023-06-05T03:33:32;99855.41;;;24.02;45.19
34370;BME280;20635;55.812;37.560;2023-06-05T03:35:58;99853.78;;;24.01;45.25
34370;BME280;20635;55.812;37.560;2023-06-05T03:38:25;99858.53;;;24.01;45.36
34370;BME280;20635;55.812;37.560;2023-06-05T03:40:52;99857.72;;;24.00;45.24
34370;BME280;20635;55.812;37.560;2023-06-05T03:43:20;99850.47;;;23.99;45.29
34370;BME280;20635;55.812;37.560;2023-06-05T03:45:46;99858.06;;;23.99;45.45
34370;BME280;20635;55.812;37.560;2023-06-05T03:48:12;99861.69;;;23.99;45.36
34370;BME280;20635;55.812;37.560;2023-06-05T03:50:41;99849.66;;;23.99;45.43
34370;BME280;20635;55.812;37.560;2023-06-05T03:53:07;99846.84;;;23.99;45.59
34370;BME280;20635;55.812;37.560;2023-06-05T03:55:35;99845.19;;;23.98;45.50
34370;BME280;20635;55.812;37.560;2023-06-05T03:58:17;99837.63;;;23.98;45.67
34370;BME280;20635;55.812;37.560;2023-06-05T04:00:47;99834.84;;;23.98;45.56
34370;BME280;20635;55.812;37.560;2023-06-05T04:03:17;99832.03;;;23.98;45.98
34370;BME280;20635;55.812;37.560;2023-06-05T04:05:44;99827.25;;;23.99;46.09
34370;BME280;20635;55.812;37.560;2023-06-05T04:08:10;99827.25;;;23.99;45.83
34370;BME280;20635;55.812;37.560;2023-06-05T04:10:37;99837.31;;;24.00;45.97
34370;BME280;20635;55.812;37.560;2023-06-05T04:13:03;99844.88;;;23.99;46.25
34370;BME280;20635;55.812;37.560;2023-06-05T04:15:31;99846.03;;;23.98;46.15
34370;BME280;20635;55.812;37.560;2023-06-05T04:17:59;99845.69;;;24.00;46.34
34370;BME280;20635;55.812;37.560;2023-06-05T04:20:26;99844.88;;;23.99;46.33
34370;BME280;20635;55.812;37.560;2023-06-05T04:22:53;99843.22;;;23.98;46.20
34370;BME280;20635;55.812;37.560;2023-06-05T04:25:19;99856.06;;;23.99;46.37
34370;BME280;20635;55.812;37.560;2023-06-05T04:27:48;99846.53;;;24.00;46.16
34370;BME280;20635;55.812;37.560;2023-06-05T04:30:15;99842.09;;;23.99;46.65
34370;BME280;20635;55.812;37.560;2023-06-05T04:32:42;99846.53;;;24.00;46.42
34370;BME280;20635;55.812;37.560;2023-06-05T04:35:09;99852.94;;;24.01;46.79
34370;BME280;20635;55.812;37.560;2023-06-05T04:37:38;99858.53;;;24.01;46.63
34370;BME280;20635;55.812;37.560;2023-06-05T04:40:05;99852.94;;;24.01;46.60
34370;BME280;20635;55.812;37.560;2023-06-05T04:42:32;99853.78;;;24.01;46.59
34370;BME280;20635;55.812;37.560;2023-06-05T04:45:01;99855.41;;;24.02;47.01
34370;BME280;20635;55.812;37.560;2023-06-05T04:47:29;99855.41;;;24.02;46.82
34370;BME280;20635;55.812;37.560;2023-06-05T04:49:57;99849.81;;;24.02;46.91
34370;BME280;20635;55.812;37.560;2023-06-05T04:52:23;99849.00;;;24.02;47.07
34370;BME280;20635;55.812;37.560;2023-06-05T04:54:49;99845.06;;;24.03;46.97
34370;BME280;20635;55.812;37.560;2023-06-05T04:57:15;99851.78;;;24.02;47.12
34370;BME280;20635;55.812;37.560;2023-06-05T04:59:44;99856.28;;;24.03;47.00
34370;BME280;20635;55.812;37.560;2023-06-05T05:02:12;99852.63;;;24.02;47.23
34370;BME280;20635;55.812;37.560;2023-06-05T05:04:40;99854.59;;;24.02;47.38
34370;BME280;20635;55.812;37.560;2023-06-05T05:07:06;99849.81;;;24.02;47.29
34370;BME280;20635;55.812;37.560;2023-06-05T05:09:32;99848.69;;;24.03;47.28
34370;BME280;20635;55.812;37.560;2023-06-05T05:11:59;99849.81;;;24.02;47.32
34370;BME280;20635;55.812;37.560;2023-06-05T05:14:26;99857.09;;;24.03;47.41
34370;BME280;20635;55.812;37.560;2023-06-05T05:16:55;99849.81;;;24.02;47.47
34370;BME280;20635;55.812;37.560;2023-06-05T05:19:24;99852.63;;;24.02;47.83
34370;BME280;20635;55.812;37.560;2023-06-05T05:21:50;99840.59;;;24.02;47.60
34370;BME280;20635;55.812;37.560;2023-06-05T05:24:15;99849.81;;;24.02;47.72
34370;BME280;20635;55.812;37.560;2023-06-05T05:26:41;99849.81;;;24.02;47.69
34370;BME280;20635;55.812;37.560;2023-06-05T05:29:07;99850.66;;;24.03;47.68
34370;BME280;20635;55.812;37.560;2023-06-05T05:31:34;99856.28;;;24.03;48.09
34370;BME280;20635;55.812;37.560;2023-06-05T05:34:00;99851.78;;;24.02;47.97
34370;BME280;20635;55.812;37.560;2023-06-05T05:36:26;99856.56;;;24.01;48.04
34370;BME280;20635;55.812;37.560;2023-06-05T05:38:53;99860.19;;;24.02;48.03
34370;BME280;20635;55.812;37.560;2023-06-05T05:41:21;99859.06;;;24.03;47.98
34370;BME280;20635;55.812;37.560;2023-06-05T05:43:47;99861.00;;;24.02;48.00
34370;BME280;20635;55.812;37.560;2023-06-05T05:46:13;99869.41;;;24.02;48.29
34370;BME280;20635;55.812;37.560;2023-06-05T05:48:39;99861.00;;;24.02;48.27
34370;BME280;20635;55.812;37.560;2023-06-05T05:51:05;99865.50;;;24.03;48.46
34370;BME280;20635;55.812;37.560;2023-06-05T05:53:31;99866.63;;;24.02;48.23
34370;BME280;20635;55.812;37.560;2023-06-05T05:55:57;99867.47;;;24.03;48.33
34370;BME280;20635;55.812;37.560;2023-06-05T05:58:23;99861.88;;;24.03;48.20
34370;BME280;20635;55.812;37.560;2023-06-05T06:00:49;99867.47;;;24.03;48.35
34370;BME280;20635;55.812;37.560;2023-06-05T06:03:16;99866.63;;;24.02;48.23
34370;BME280;20635;55.812;37.560;2023-06-05T06:05:42;99864.66;;;24.03;48.31
34370;BME280;20635;55.812;37.560;2023-06-05T06:08:08;99859.38;;;24.01;48.41
34370;BME280;20635;55.812;37.560;2023-06-05T06:10:34;99864.97;;;24.01;48.44
34370;BME280;20635;55.812;37.560;2023-06-05T06:12:59;99863.00;;;24.02;48.33
34370;BME280;20635;55.812;37.560;2023-06-05T06:15:25;99856.56;;;24.01;48.52
34370;BME280;20635;55.812;37.560;2023-06-05T06:17:53;99862.16;;;24.01;48.65
34370;BME280;20635;55.812;37.560;2023-06-05T06:20:19;99852.94;;;24.01;48.54
34370;BME280;20635;55.812;37.560;2023-06-05T06:22:45;99857.72;;;24.00;48.73
34370;BME280;20635;55.812;37.560;2023-06-05T06:25:10;99855.75;;;24.01;48.48
34370;BME280;20635;55.812;37.560;2023-06-05T06:27:37;99856.06;;;23.99;48.62
34370;BME280;20635;55.812;37.560;2023-06-05T06:30:04;99860.53;;;24.00;48.67
34370;BME280;20635;55.812;37.560;2023-06-05T06:32:31;99856.91;;;24.00;48.51
34370;BME280;20635;55.812;37.560;2023-06-05T06:34:56;99862.16;;;24.01;48.64
34370;BME280;20635;55.812;37.560;2023-06-05T06:37:23;99864.16;;;24.01;48.40
34370;BME280;20635;55.812;37.560;2023-06-05T06:39:49;99866.13;;;24.00;48.74
34370;BME280;20635;55.812;37.560;2023-06-05T06:42:15;99857.72;;;24.00;48.57
34370;BME280;20635;55.812;37.560;2023-06-05T06:44:50;99855.75;;;24.01;48.86
34370;BME280;20635;55.812;37.560;2023-06-05T06:47:21;99858.53;;;24.01;48.53
34370;BME280;20635;55.812;37.560;2023-06-05T06:49:47;99848.50;;;24.00;48.79
34370;BME280;20635;55.812;37.560;2023-06-05T06:52:13;99857.72;;;24.00;48.83
34370;BME280;20635;55.812;37.560;2023-06-05T06:54:39;99847.34;;;24.01;48.72
34370;BME280;20635;55.812;37.560;2023-06-05T06:57:05;99842.91;;;24.00;48.74
34370;BME280;20635;55.812;37.560;2023-06-05T06:59:33;99835.31;;;24.00;48.73
34370;BME280;20635;55.812;37.560;2023-06-05T07:02:12;99829.72;;;24.00;48.59
34370;BME280;20635;55.812;37.560;2023-06-05T07:04:39;99828.09;;;23.99;48.73
34370;BME280;20635;55.812;37.560;2023-06-05T07:07:07;99839.28;;;23.99;48.77
34370;BME280;20635;55.812;37.560;2023-06-05T07:09:33;99830.88;;;23.99;48.89
34370;BME280;20635;55.812;37.560;2023-06-05T07:11:59;99834.50;;;24.00;48.88
34370;BME280;20635;55.812;37.560;2023-06-05T07:14:30;99826.09;;;24.00;48.61
34370;BME280;20635;55.812;37.560;2023-06-05T07:16:57;99830.06;;;23.99;48.76
34370;BME280;20635;55.812;37.560;2023-06-05T07:19:28;99828.91;;;24.00;48.74
34370;BME280;20635;55.812;37.560;2023-06-05T07:21:55;99826.94;;;24.00;48.86
34370;BME280;20635;55.812;37.560;2023-06-05T07:24:21;99834.19;;;24.01;48.76
34370;BME280;20635;55.812;37.560;2023-06-05T07:26:50;99830.56;;;24.01;48.70
34370;BME280;20635;55.812;37.560;2023-06-05T07:29:17;99826.94;;;24.00;48.70
34370;BME280;20635;55.812;37.560;2023-06-05T07:31:44;99824.13;;;24.00;48.92
34370;BME280;20635;55.812;37.560;2023-06-05T07:34:10;99832.53;;;24.00;48.80
34370;BME280;20635;55.812;37.560;2023-06-05T07:36:38;99836.16;;;24.01;48.86
34370;BME280;20635;55.812;37.560;2023-06-05T07:39:04;99840.09;;;24.00;48.76
34370;BME280;20635;55.812;37.560;2023-06-05T07:41:30;99835.31;;;24.00;48.85
34370;BME280;20635;55.812;37.560;2023-06-05T07:43:56;99835.31;;;24.00;49.02
34370;BME280;20635;55.812;37.560;2023-06-05T07:46:22;99832.53;;;24.00;49.11
34370;BME280;20635;55.812;37.560;2023-06-05T07:48:48;99846.53;;;24.00;49.10
34370;BME280;20635;55.812;37.560;2023-06-05T07:51:14;99837.31;;;24.00;48.84
34370;BME280;20635;55.812;37.560;2023-06-05T07:53:43;99833.34;;;24.01;48.98
34370;BME280;20635;55.812;37.560;2023-06-05T07:56:09;99834.19;;;24.01;48.98
34370;BME280;20635;55.812;37.560;2023-06-05T07:58:37;99828.56;;;24.01;49.13
34370;BME280;20635;55.812;37.560;2023-06-05T08:01:04;99824.94;;;24.01;48.97
34370;BME280;20635;55.812;37.560;2023-06-05T08:03:32;99818.53;;;24.00;49.04
34370;BME280;20635;55.812;37.560;2023-06-05T08:05:58;99822.16;;;24.01;49.17
34370;BME280;20635;55.812;37.560;2023-06-05T08:08:24;99817.38;;;24.01;48.84
34370;BME280;20635;55.812;37.560;2023-06-05T08:10:50;99832.53;;;24.00;48.80
34370;BME280;20635;55.812;37.560;2023-06-05T08:13:16;99831.38;;;24.01;49.01
34370;BME280;20635;55.812;37.560;2023-06-05T08:15:42;99827.75;;;24.01;48.90
34370;BME280;20635;55.812;37.560;2023-06-05T08:18:08;99829.72;;;24.00;49.06
34370;BME280;20635;55.812;37.560;2023-06-05T08:20:34;99819.34;;;24.01;48.98
34370;BME280;20635;55.812;37.560;2023-06-05T08:23:00;99822.97;;;24.01;49.22
34370;BME280;20635;55.812;37.560;2023-06-05T08:25:27;99826.94;;;24.00;48.94
34370;BME280;20635;55.812;37.560;2023-06-05T08:27:53;99822.16;;;24.01;49.23
34370;BME280;20635;55.812;37.560;2023-06-05T08:30:19;99810.13;;;24.00;48.81
34370;BME280;20635;55.812;37.560;2023-06-05T08:32:45;99816.56;;;24.01;49.00
34370;BME280;20635;55.812;37.560;2023-06-05T08:35:11;99812.13;;;24.00;48.94
34370;BME280;20635;55.812;37.560;2023-06-05T08:37:37;99807.34;;;24.00;48.90
34370;BME280;20635;55.812;37.560;2023-06-05T08:40:04;99810.13;;;24.00;48.96
34370;BME280;20635;55.812;37.560;2023-06-05T08:42:36;99803.38;;;24.01;48.91
34370;BME280;20635;55.812;37.560;2023-06-05T08:45:06;99802.56;;;24.01;48.85
34370;BME280;20635;55.812;37.560;2023-06-05T08:47:32;99791.38;;;24.01;48.86
34370;BME280;20635;55.812;37.560;2023-06-05T08:50:01;99801.75;;;24.00;49.11
34370;BME280;20635;55.812;37.560;2023-06-05T08:52:28;99796.13;;;24.00;48.67
34370;BME280;20635;55.812;37.560;2023-06-05T08:54:58;99796.13;;;24.00;48.72
34370;BME280;20635;55.812;37.560;2023-06-05T08:57:24;99785.75;;;24.01;49.08
34370;BME280;20635;55.812;37.560;2023-06-05T08:59:50;99778.53;;;24.00;48.87
34370;BME280;20635;55.812;37.560;2023-06-05T09:02:16;99770.94;;;24.00;48.92
34370;BME280;20635;55.812;37.560;2023-06-05T09:04:41;99784.13;;;24.00;48.80
34370;BME280;20635;55.812;37.560;2023-06-05T09:07:07;99778.53;;;24.00;49.05
34370;BME280;20635;55.812;37.560;2023-06-05T09:09:33;99772.09;;;23.99;49.02
34370;BME280;20635;55.812;37.560;2023-06-05T09:14:30;99767.31;;;24.00;48.69
34370;BME280;20635;55.812;37.560;2023-06-05T09:16:59;99761.72;;;24.00;48.64
34370;BME280;20635;55.812;37.560;2023-06-05T09:19:35;99768.97;;;24.01;48.82
34370;BME280;20635;55.812;37.560;2023-06-05T09:22:01;99764.53;;;24.00;48.70
34370;BME280;20635;55.812;37.560;2023-06-05T09:24:27;99768.16;;;24.00;48.78
34370;BME280;20635;55.812;37.560;2023-06-05T09:26:59;99758.94;;;24.00;48.61
34370;BME280;20635;55.812;37.560;2023-06-05T09:29:28;99759.75;;;24.00;48.81
34370;BME280;20635;55.812;37.560;2023-06-05T09:31:59;99761.72;;;24.00;48.59
34370;BME280;20635;55.812;37.560;2023-06-05T09:34:27;99761.72;;;24.00;48.55
34370;BME280;20635;55.812;37.560;2023-06-05T09:36:54;99785.75;;;24.01;48.50
34370;BME280;20635;55.812;37.560;2023-06-05T09:39:20;99794.16;;;24.01;48.50
34370;BME280;20635;55.812;37.560;2023-06-05T09:41:47;99803.72;;;24.00;48.48
34370;BME280;20635;55.812;37.560;2023-06-05T09:44:14;99829.72;;;24.00;48.46
34370;BME280;20635;55.812;37.560;2023-06-05T09:49:23;99812.13;;;24.00;48.58
34370;BME280;20635;55.812;37.560;2023-06-05T09:51:49;99796.13;;;24.00;48.71
34370;BME280;20635;55.812;37.560;2023-06-05T09:54:15;99796.13;;;24.00;48.79
34370;BME280;20635;55.812;37.560;2023-06-05T09:56:44;99792.50;;;24.00;48.56
34370;BME280;20635;55.812;37.560;2023-06-05T09:59:13;99790.88;;;23.99;48.57
34370;BME280;20635;55.812;37.560;2023-06-05T10:01:39;99795.31;;;24.00;48.60
34370;BME280;20635;55.812;37.560;2023-06-05T10:04:06;99788.91;;;23.99;48.42
34370;BME280;20635;55.812;37.560;2023-06-05T10:06:33;99791.69;;;23.99;48.73
34370;BME280;20635;55.812;37.560;2023-06-05T10:08:59;99786.09;;;23.99;48.58
34370;BME280;20635;55.812;37.560;2023-06-05T10:11:26;99786.09;;;23.99;48.31
34370;BME280;20635;55.812;37.560;2023-06-05T10:13:52;99782.47;;;23.99;48.53
34370;BME280;20635;55.812;37.560;2023-06-05T10:16:25;99786.91;;;24.00;48.51
34370;BME280;20635;55.812;37.560;2023-06-05T10:18:51;99788.56;;;24.01;48.31
34370;BME280;20635;55.812;37.560;2023-06-05T10:21:17;99775.38;;;24.01;48.42
34370;BME280;20635;55.812;37.560;2023-06-05T10:23:45;99785.44;;;24.02;48.36
34370;BME280;20635;55.812;37.560;2023-06-05T10:40:01;99768.63;;;24.02;48.18
34370;BME280;20635;55.812;37.560;2023-06-05T10:42:30;99758.28;;;24.03;48.18
34370;BME280;20635;55.812;37.560;2023-06-05T10:44:55;99753.53;;;24.03;48.44
34370;BME280;20635;55.812;37.560;2023-06-05T10:52:41;99746.75;;;24.04;48.15
34370;BME280;20635;55.812;37.560;2023-06-05T10:55:07;99755.97;;;24.05;48.20
34370;BME280;20635;55.812;37.560;2023-06-05T11:00:17;99756.81;;;24.05;48.37
34370;BME280;20635;55.812;37.560;2023-06-05T11:02:46;99767.50;;;24.03;48.38
34370;BME280;20635;55.812;37.560;2023-06-05T11:05:12;99773.41;;;24.02;48.10
34370;BME280;20635;55.812;37.560;2023-06-05T11:07:38;99773.75;;;24.00;47.63
34370;BME280;20635;55.812;37.560;2023-06-05T11:10:06;99786.41;;;23.98;47.75
34370;BME280;20635;55.812;37.560;2023-06-05T11:15:01;99796.59;;;23.94;47.42
34370;BME280;20635;55.812;37.560;2023-06-05T11:17:34;99783.25;;;23.91;47.07
34370;BME280;20635;55.812;37.560;2023-06-05T11:27:44;99760.19;;;23.85;46.69
34370;BME280;20635;55.812;37.560;2023-06-05T11:30:19;99757.69;;;23.84;46.43
34370;BME280;20635;55.812;37.560;2023-06-05T11:32:46;99761.63;;;23.83;46.49
34370;BME280;20635;55.812;37.560;2023-06-05T11:35:12;99762.78;;;23.82;46.57
34370;BME280;20635;55.812;37.560;2023-06-05T11:37:38;99760.31;;;23.80;46.25
34370;BME280;20635;55.812;37.560;2023-06-05T11:40:05;99756.66;;;23.79;46.29
34370;BME280;20635;55.812;37.560;2023-06-05T11:42:38;99761.44;;;23.79;46.40
34370;BME280;20635;55.812;37.560;2023-06-05T11:45:11;99760.13;;;23.76;46.44
34370;BME280;20635;55.812;37.560;2023-06-05T11:47:37;99760.94;;;23.77;46.08
34370;BME280;20635;55.812;37.560;2023-06-05T11:50:09;99764.91;;;23.76;46.43
34370;BME280;20635;55.812;37.560;2023-06-05T11:52:36;99766.53;;;23.77;46.56
34370;BME280;20635;55.812;37.560;2023-06-05T11:55:15;99785.78;;;23.78;46.68
34370;BME280;20635;55.812;37.560;2023-06-05T11:57:42;99783.00;;;23.78;46.76
34370;BME280;20635;55.812;37.560;2023-06-05T12:00:11;99799.50;;;23.80;46.79
34370;BME280;20635;55.812;37.560;2023-06-05T12:02:38;99823.53;;;23.81;46.83
34370;BME280;20635;55.812;37.560;2023-06-05T12:05:07;99815.13;;;23.81;46.89
34370;BME280;20635;55.812;37.560;2023-06-05T12:07:33;99824.34;;;23.82;46.88
34370;BME280;20635;55.812;37.560;2023-06-05T12:10:03;99826.00;;;23.83;47.07
34370;BME280;20635;55.812;37.560;2023-06-05T12:12:29;99820.72;;;23.81;46.98
34370;BME280;20635;55.812;37.560;2023-06-05T12:14:55;99807.88;;;23.80;46.98
34370;BME280;20635;55.812;37.560;2023-06-05T12:17:21;99804.75;;;23.82;47.13
34370;BME280;20635;55.812;37.560;2023-06-05T12:19:53;99799.16;;;23.82;47.09
34370;BME280;20635;55.812;37.560;2023-06-05T12:22:19;99800.81;;;23.83;47.15
34370;BME280;20635;55.812;37.560;2023-06-05T12:24:45;99795.53;;;23.81;46.89
34370;BME280;20635;55.812;37.560;2023-06-05T12:27:11;99798.00;;;23.83;47.16
34370;BME280;20635;55.812;37.560;2023-06-05T12:29:38;99796.03;;;23.83;46.82
34370;BME280;20635;55.812;37.560;2023-06-05T12:32:19;99793.22;;;23.83;46.87
34370;BME280;20635;55.812;37.560;2023-06-05T12:34:46;99788.47;;;23.84;47.15
34370;BME280;20635;55.812;37.560;2023-06-05T12:39:48;99783.38;;;23.86;47.14
34370;BME280;20635;55.812;37.560;2023-06-05T12:42:13;99787.50;;;23.88;47.13
34370;BME280;20635;55.812;37.560;2023-06-05T12:44:39;99790.00;;;23.90;47.11
34370;BME280;20635;55.812;37.560;2023-06-05T12:47:06;99784.06;;;23.91;46.88
34370;BME280;20635;55.812;37.560;2023-06-05T12:49:32;99777.31;;;23.92;47.11
34370;BME280;20635;55.812;37.560;2023-06-05T12:51:58;99773.38;;;23.93;47.02
34370;BME280;20635;55.812;37.560;2023-06-05T12:54:24;99781.47;;;23.95;47.00
34370;BME280;20635;55.812;37.560;2023-06-05T12:56:49;99771.91;;;23.96;46.88
34370;BME280;20635;55.812;37.560;2023-06-05T12:59:15;99773.25;;;23.98;46.88
34370;BME280;20635;55.812;37.560;2023-06-05T13:01:41;99773.75;;;24.00;46.77
34370;BME280;20635;55.812;37.560;2023-06-05T13:04:07;99767.81;;;24.02;46.85
34370;BME280;20635;55.812;37.560;2023-06-05T13:06:33;99767.50;;;24.03;46.99
34370;BME280;20635;55.812;37.560;2023-06-05T13:08:59;99761.59;;;24.05;46.93
34370;BME280;20635;55.812;37.560;2023-06-05T13:11:25;99771.31;;;24.08;46.61
34370;BME280;20635;55.812;37.560;2023-06-05T13:13:51;99771.47;;;24.11;46.60
34370;BME280;20635;55.812;37.560;2023-06-05T13:16:17;99765.59;;;24.13;46.70
34370;BME280;20635;55.812;37.560;2023-06-05T13:18:43;99760.81;;;24.13;46.58
34370;BME280;20635;55.812;37.560;2023-06-05T13:21:08;99768.88;;;24.15;46.55
34370;BME280;20635;55.812;37.560;2023-06-05T13:23:34;99764.91;;;24.16;46.74
34370;BME280;20635;55.812;37.560;2023-06-05T13:26:00;99762.63;;;24.18;46.77
34370;BME280;20635;55.812;37.560;2023-06-05T13:28:26;99752.25;;;24.18;46.35
34370;BME280;20635;55.812;37.560;2023-06-05T13:30:52;99749.94;;;24.20;46.38
34370;BME280;20635;55.812;37.560;2023-06-05T13:33:18;99756.06;;;24.22;46.50
34370;BME280;20635;55.812;37.560;2023-06-05T13:35:44;99752.94;;;24.24;46.54